Time;durP1;ratioP1;P1;durP2;ratioP2;P2;SDS_P1;SDS_P2;PMS_P1;PMS_P2;Temp;Humidity;BMP_temperature;BMP_pressure;BME280_temperature;BME280_humidity;BME280_pressure;Samples;Min_cycle;Max_cycle;Signal;HPM_P1;HPM_P2
2022/11/27 00:01:31;;;;;;;164.48;62.75;;;;;;;-0.36;100.00;102379.00;5032393;28;20103;-86
2022/11/27 00:03:58;;;;;;;148.15;65.40;;;;;;;-0.19;100.00;102375.31;5033564;28;20111;-83
2022/11/27 00:06:27;;;;;;;48.83;28.35;;;;;;;-0.35;100.00;102372.00;5031045;28;20163;-83
2022/11/27 00:08:56;;;;;;;78.55;42.15;;;;;;;-0.28;100.00;102371.50;5037801;28;20048;-83
2022/11/27 00:11:25;;;;;;;64.47;33.97;;;;;;;-0.29;100.00;102374.22;5031973;28;20057;-85
2022/11/27 00:13:52;;;;;;;57.08;30.45;;;;;;;-0.41;100.00;102365.38;5041944;28;20053;-84
2022/11/27 00:16:20;;;;;;;64.93;38.58;;;;;;;-0.09;100.00;102366.00;5032753;28;20065;-85
2022/11/27 00:18:48;;;;;;;72.05;39.42;;;;;;;-0.26;100.00;102368.81;5027217;28;20046;-83
2022/11/27 00:21:17;;;;;;;52.50;33.13;;;;;;;-0.25;100.00;102373.09;5042774;28;20057;-83
2022/11/27 00:23:44;;;;;;;40.90;30.00;;;;;;;-0.27;100.00;102372.38;5038876;28;20501;-85
2022/11/27 00:26:11;;;;;;;54.00;33.85;;;;;;;-0.12;100.00;102374.03;5034042;28;20192;-84
2022/11/27 00:28:40;;;;;;;51.53;34.88;;;;;;;-0.12;100.00;102379.25;5025938;28;20480;-84
2022/11/27 00:31:08;;;;;;;57.10;37.40;;;;;;;-0.11;100.00;102375.69;5030072;28;20046;-84
2022/11/27 00:33:36;;;;;;;50.67;36.83;;;;;;;-0.21;100.00;102379.81;5050965;28;20079;-83
2022/11/27 00:36:03;;;;;;;45.85;37.13;;;;;;;-0.16;100.00;102374.28;5050751;28;20144;-83
2022/11/27 00:38:31;;;;;;;41.70;35.50;;;;;;;-0.16;100.00;102379.53;5028723;28;20049;-83
2022/11/27 00:40:59;;;;;;;42.50;35.67;;;;;;;-0.11;100.00;102385.31;5039727;28;20048;-84
2022/11/27 00:43:26;;;;;;;51.28;41.90;;;;;;;0.06;100.00;102382.47;5043360;28;20124;-84
2022/11/27 00:45:54;;;;;;;43.45;32.33;;;;;;;-0.11;100.00;102393.16;5028644;28;20065;-83
2022/11/27 00:48:21;;;;;;;38.58;33.22;;;;;;;-0.36;100.00;102392.03;5027845;28;20087;-83
2022/11/27 00:50:48;;;;;;;45.22;38.28;;;;;;;-0.07;100.00;102392.00;5040535;28;20065;-82
2022/11/27 00:53:14;;;;;;;41.83;37.20;;;;;;;-0.14;100.00;102388.94;5036581;28;20091;-84
2022/11/27 00:55:41;;;;;;;42.63;37.42;;;;;;;0.04;100.00;102389.56;5020096;28;20041;-83
2022/11/27 00:58:08;;;;;;;49.53;44.17;;;;;;;-0.05;100.00;102390.97;5037656;28;20494;-83
2022/11/27 01:00:35;;;;;;;45.83;41.25;;;;;;;0.05;100.00;102388.63;5121246;22;20033;-85
2022/11/27 01:03:03;;;;;;;47.25;42.20;;;;;;;0.05;100.00;102393.00;5036234;28;20053;-84
2022/11/27 01:05:30;;;;;;;89.55;60.85;;;;;;;0.05;100.00;102396.47;5031115;28;20108;-85
2022/11/27 01:07:56;;;;;;;68.53;51.05;;;;;;;0.08;100.00;102391.03;5033256;28;20057;-83
2022/11/27 01:10:23;;;;;;;63.55;51.95;;;;;;;0.09;100.00;102397.97;5032781;28;20092;-83
2022/11/27 01:12:51;;;;;;;50.47;44.70;;;;;;;0.03;100.00;102394.88;5031045;28;20049;-85
2022/11/27 01:15:18;;;;;;;44.80;40.10;;;;;;;0.08;100.00;102395.44;5035505;28;20065;-83
2022/11/27 01:17:44;;;;;;;61.97;51.90;;;;;;;-0.01;100.00;102397.69;5027574;28;20049;-84
2022/11/27 01:20:13;;;;;;;86.38;58.45;;;;;;;-0.02;100.00;102403.84;5019095;28;20058;-83
2022/11/27 01:22:40;;;;;;;46.20;41.33;;;;;;;0.06;100.00;102399.91;5030361;28;20064;-83
2022/11/27 01:25:08;;;;;;;60.28;48.88;;;;;;;-0.09;100.00;102402.56;5024830;28;20177;-84
2022/11/27 01:27:35;;;;;;;45.08;40.70;;;;;;;-0.08;100.00;102399.00;5025977;28;20054;-86
2022/11/27 01:30:01;;;;;;;42.40;38.42;;;;;;;-0.14;100.00;102402.00;5018536;28;20041;-84
2022/11/27 01:32:28;;;;;;;55.65;48.20;;;;;;;-0.16;100.00;102403.03;5027822;28;20046;-84
2022/11/27 01:34:55;;;;;;;69.50;52.30;;;;;;;0.17;100.00;102400.91;5024540;28;20056;-83
2022/11/27 01:37:23;;;;;;;46.67;41.90;;;;;;;0.07;100.00;102399.00;5024606;28;20057;-84
2022/11/27 01:39:50;;;;;;;40.47;36.35;;;;;;;-0.17;100.00;102406.59;5030331;28;20052;-84
2022/11/27 01:42:19;;;;;;;53.28;43.17;;;;;;;-0.06;100.00;102396.28;5021641;28;20060;-83
2022/11/27 01:44:55;;;;;;;45.45;40.80;;;;;;;0.19;100.00;102396.44;5025445;28;20046;-85
2022/11/27 01:47:39;;;;;;;47.90;43.15;;;;;;;0.22;100.00;102403.25;5036844;28;20045;-84
2022/11/27 01:50:11;;;;;;;46.83;42.13;;;;;;;0.17;100.00;102394.84;5028866;28;20115;-86
2022/11/27 01:52:44;;;;;;;45.88;41.33;;;;;;;0.26;100.00;102398.66;5024031;28;20469;-86
2022/11/27 01:55:19;;;;;;;54.13;45.80;;;;;;;0.21;100.00;102397.19;5029457;28;20053;-85
2022/11/27 01:57:48;;;;;;;64.13;48.85;;;;;;;0.14;100.00;102387.22;5025769;28;20140;-83
2022/11/27 02:00:17;;;;;;;58.72;47.50;;;;;;;0.04;100.00;102391.34;5029453;28;20042;-85
2022/11/27 02:02:44;;;;;;;51.45;46.20;;;;;;;0.06;100.00;102392.06;5029471;28;20054;-83
2022/11/27 02:05:16;;;;;;;75.88;53.42;;;;;;;0.12;100.00;102394.28;5033761;28;20045;-84
2022/11/27 02:07:44;;;;;;;50.73;45.27;;;;;;;0.03;100.00;102392.25;5029242;28;20050;-85
2022/11/27 02:10:12;;;;;;;49.58;44.70;;;;;;;0.25;100.00;102386.53;5027854;28;20054;-83
2022/11/27 02:12:53;;;;;;;44.42;40.10;;;;;;;0.04;100.00;102376.50;5028485;28;20080;-86
2022/11/27 02:15:26;;;;;;;43.83;39.83;;;;;;;0.15;100.00;102386.25;5029741;28;20510;-84
2022/11/27 02:18:02;;;;;;;45.90;41.33;;;;;;;0.26;100.00;102382.97;5027672;28;20123;-82
2022/11/27 02:20:43;;;;;;;64.82;48.33;;;;;;;0.16;100.00;102386.19;5032318;28;20046;-85
2022/11/27 02:23:29;;;;;;;45.47;41.45;;;;;;;0.25;100.00;102392.59;5023464;28;20120;-85
2022/11/27 02:26:17;;;;;;;70.60;55.10;;;;;;;0.10;100.00;102381.34;5029605;28;20460;-85
2022/11/27 02:28:59;;;;;;;57.03;48.28;;;;;;;0.24;100.00;102383.06;5023838;28;20081;-84
2022/11/27 02:31:34;;;;;;;46.75;42.05;;;;;;;0.27;100.00;102379.41;5032600;28;20049;-85
2022/11/27 02:34:09;;;;;;;67.30;52.03;;;;;;;0.12;100.00;102386.47;5028521;28;20371;-85
2022/11/27 02:36:39;;;;;;;57.13;48.70;;;;;;;0.53;100.00;102391.66;5031727;28;20045;-84
2022/11/27 02:39:12;;;;;;;51.45;46.30;;;;;;;0.38;100.00;102379.56;5029674;28;20083;-85
2022/11/27 02:41:44;;;;;;;;;;;;;;;0.32;100.00;102377.34;5029004;28;20045;-84
2022/11/27 02:44:14;;;;;;;55.10;49.15;;;;;;;0.37;100.00;102380.53;5029173;28;19979;-86
2022/11/27 02:46:42;;;;;;;47.92;43.13;;;;;;;0.26;100.00;102373.34;5024319;28;20045;-86
2022/11/27 02:49:14;;;;;;;46.92;42.78;;;;;;;0.29;100.00;102372.31;5024921;28;20058;-86
2022/11/27 02:51:46;;;;;;;45.28;40.88;;;;;;;0.35;100.00;102372.78;5034173;28;20061;-86
2022/11/27 02:54:19;;;;;;;46.83;42.37;;;;;;;0.26;100.00;102378.59;5026431;28;20188;-87
2022/11/27 02:56:48;;;;;;;46.65;41.97;;;;;;;0.18;100.00;102380.84;5023019;28;20459;-86
2022/11/27 02:59:18;;;;;;;49.38;44.88;;;;;;;0.32;100.00;102380.81;5027538;28;20050;-85
2022/11/27 03:01:52;;;;;;;47.70;42.90;;;;;;;0.45;100.00;102388.69;5037364;28;20153;-86
2022/11/27 03:04:23;;;;;;;49.65;44.97;;;;;;;0.40;100.00;102388.16;5047057;28;20046;-86
2022/11/27 03:06:55;;;;;;;52.03;47.03;;;;;;;0.34;100.00;102394.63;5041645;28;20044;-85
2022/11/27 03:09:26;;;;;;;49.30;44.40;;;;;;;0.45;100.00;102383.47;5040257;28;20048;-86
2022/11/27 03:11:53;;;;;;;52.28;46.85;;;;;;;0.44;100.00;102390.47;5053866;28;20539;-85
2022/11/27 03:14:23;;;;;;;51.83;46.95;;;;;;;0.27;100.00;102389.88;5048795;28;20045;-87
2022/11/27 03:16:59;;;;;;;52.38;47.50;;;;;;;0.42;100.00;102381.03;5039916;28;20088;-86
2022/11/27 03:19:34;;;;;;;48.25;43.65;;;;;;;0.52;100.00;102390.00;5046315;28;20103;-85
2022/11/27 03:22:03;;;;;;;48.00;43.50;;;;;;;0.39;100.00;102387.34;5055691;28;20075;-86
2022/11/27 03:24:34;;;;;;;49.83;44.90;;;;;;;0.31;100.00;102384.38;5043463;28;20063;-86
2022/11/27 03:27:01;;;;;;;49.45;44.45;;;;;;;0.52;100.00;102394.38;5048560;28;20049;-86
2022/11/27 03:29:35;;;;;;;51.00;46.03;;;;;;;0.42;100.00;102389.75;5051822;28;20049;-85
2022/11/27 03:32:02;;;;;;;57.85;51.92;;;;;;;0.56;100.00;102386.22;5046949;28;20127;-83
2022/11/27 03:34:29;;;;;;;49.28;44.40;;;;;;;0.33;100.00;102386.88;5045186;28;20068;-84
2022/11/27 03:36:56;;;;;;;48.65;43.60;;;;;;;0.42;100.00;102394.13;5052698;28;20053;-85
2022/11/27 03:39:24;;;;;;;48.47;43.65;;;;;;;0.55;100.00;102407.25;5046995;28;20049;-83
2022/11/27 03:42:00;;;;;;;47.80;43.33;;;;;;;0.32;100.00;102396.50;5043353;28;20053;-83
2022/11/27 03:44:34;;;;;;;46.55;42.08;;;;;;;0.37;100.00;102407.50;5052380;28;20056;-85
2022/11/27 03:47:09;;;;;;;47.70;42.65;;;;;;;0.55;100.00;102402.88;5050832;28;20041;-88
2022/11/27 03:49:46;;;;;;;48.70;43.58;;;;;;;0.55;100.00;102408.09;5048163;28;20056;-85
2022/11/27 03:52:20;;;;;;;51.15;46.15;;;;;;;0.56;100.00;102404.53;5058677;28;20048;-85
2022/11/27 03:54:57;;;;;;;47.05;42.28;;;;;;;0.21;100.00;102394.56;5048740;28;20061;-84
2022/11/27 03:57:30;;;;;;;45.42;40.90;;;;;;;0.50;100.00;102397.09;5048790;28;20420;-85
2022/11/27 04:00:00;;;;;;;;;;;;;;;0.60;100.00;102403.38;5050280;28;20048;-85
2022/11/27 04:02:31;;;;;;;49.17;44.35;;;;;;;0.57;100.00;102405.38;5064458;28;19920;-84
2022/11/27 04:04:58;;;;;;;48.33;43.17;;;;;;;0.63;100.00;102412.81;5070519;28;20036;-85
2022/11/27 04:07:24;;;;;;;48.58;43.90;;;;;;;0.71;100.00;102415.78;5073636;28;20428;-85
2022/11/27 04:09:52;;;;;;;48.15;43.45;;;;;;;0.69;100.00;102418.47;5070433;28;20045;-85
2022/11/27 04:12:19;;;;;;;65.85;51.72;;;;;;;0.74;100.00;102417.34;5074345;28;20135;-85
2022/11/27 04:14:46;;;;;;;52.50;45.40;;;;;;;0.77;100.00;102407.53;5069661;28;20520;-84
2022/11/27 04:17:14;;;;;;;61.13;48.55;;;;;;;0.63;100.00;102407.59;5067790;28;20473;-85
2022/11/27 04:19:41;;;;;;;69.50;52.90;;;;;;;0.85;100.00;102413.09;5068538;28;20465;-85
2022/11/27 04:22:07;;;;;;;72.00;51.88;;;;;;;0.91;100.00;102412.69;5060294;28;20079;-83
2022/11/27 04:24:34;;;;;;;67.93;51.72;;;;;;;0.79;100.00;102413.50;5071960;28;20370;-83
2022/11/27 04:27:01;;;;;;;69.68;50.38;;;;;;;0.82;100.00;102412.47;5065743;28;20483;-85
2022/11/27 04:29:27;;;;;;;78.53;52.15;;;;;;;0.66;100.00;102410.00;5070335;28;20109;-83
2022/11/27 04:31:54;;;;;;;68.53;48.22;;;;;;;0.35;100.00;102398.91;5064866;28;20048;-84
2022/11/27 04:34:23;;;;;;;69.43;50.45;;;;;;;0.74;100.00;102410.34;5063270;28;20040;-83
2022/11/27 04:36:49;;;;;;;68.53;53.60;;;;;;;0.36;100.00;102410.19;5060503;28;20113;-85
2022/11/27 04:39:16;;;;;;;66.97;49.63;;;;;;;0.50;100.00;102404.94;5061239;28;20103;-84
2022/11/27 04:41:43;;;;;;;69.03;49.63;;;;;;;0.82;100.00;102409.84;5067499;28;20045;-84
2022/11/27 04:44:11;;;;;;;70.63;52.53;;;;;;;0.76;100.00;102410.25;5072693;28;20457;-85
2022/11/27 04:46:37;;;;;;;63.13;51.22;;;;;;;0.74;100.00;102409.50;5072004;28;20468;-85
2022/11/27 04:49:04;;;;;;;72.00;50.38;;;;;;;0.57;100.00;102408.81;5061498;28;20472;-84
2022/11/27 04:51:32;;;;;;;66.47;50.10;;;;;;;0.75;100.00;102412.00;5059536;28;20056;-85
2022/11/27 04:53:59;;;;;;;57.65;47.50;;;;;;;0.92;100.00;102413.53;5073108;28;20049;-86
2022/11/27 04:56:26;;;;;;;60.28;48.35;;;;;;;0.97;100.00;102406.22;5072936;28;20442;-85
2022/11/27 04:58:53;;;;;;;56.72;47.15;;;;;;;0.87;100.00;102405.97;5062146;28;20041;-85
2022/11/27 05:01:20;;;;;;;63.35;47.78;;;;;;;1.00;100.00;102407.78;5078983;28;20044;-86
2022/11/27 05:03:47;;;;;;;152.13;72.57;;;;;;;0.87;100.00;102407.75;5066368;28;20056;-85
2022/11/27 05:06:14;;;;;;;202.23;85.90;;;;;;;0.91;100.00;102410.09;5063995;28;20474;-86
2022/11/27 05:08:43;;;;;;;81.15;55.63;;;;;;;0.89;100.00;102404.09;5072596;28;20057;-85
2022/11/27 05:11:12;;;;;;;92.25;56.88;;;;;;;1.07;100.00;102399.44;5063440;28;20049;-85
2022/11/27 05:13:39;;;;;;;60.50;48.97;;;;;;;1.03;100.00;102400.59;5071979;28;20121;-87
2022/11/27 05:16:08;;;;;;;55.67;48.00;;;;;;;1.03;100.00;102413.66;5062583;28;20542;-85
2022/11/27 05:18:36;;;;;;;71.22;56.10;;;;;;;0.83;100.00;102409.75;5061074;28;20086;-87
2022/11/27 05:21:04;;;;;;;108.35;76.85;;;;;;;0.75;100.00;102408.56;5074393;28;20113;-84
2022/11/27 05:23:32;;;;;;;95.00;63.97;;;;;;;0.65;100.00;102395.25;5067449;28;20052;-85
2022/11/27 05:26:00;;;;;;;84.72;60.22;;;;;;;0.95;100.00;102400.25;5064075;28;20049;-83
2022/11/27 05:28:27;;;;;;;73.63;55.80;;;;;;;1.02;100.00;102404.13;5069481;28;20045;-83
2022/11/27 05:30:54;;;;;;;76.25;55.90;;;;;;;1.04;100.00;102407.47;5064579;28;20044;-84
2022/11/27 05:33:21;;;;;;;73.97;61.50;;;;;;;0.99;100.00;102398.25;5067551;28;20041;-83
2022/11/27 05:35:48;;;;;;;71.13;53.78;;;;;;;0.90;100.00;102397.09;5065991;28;20171;-84
2022/11/27 05:38:14;;;;;;;69.97;51.15;;;;;;;1.01;100.00;102402.44;5016463;28;20389;-86
2022/11/27 05:40:41;;;;;;;59.08;48.47;;;;;;;1.33;100.00;102405.53;5065098;28;20052;-85
2022/11/27 05:43:09;;;;;;;49.97;44.65;;;;;;;1.40;100.00;102400.72;5065206;28;20134;-85
2022/11/27 05:45:37;;;;;;;51.17;45.72;;;;;;;1.32;100.00;102410.84;5058329;28;20053;-85
2022/11/27 05:48:04;;;;;;;51.03;45.53;;;;;;;1.38;100.00;102411.28;5060696;28;20437;-86
2022/11/27 05:50:31;;;;;;;49.92;44.75;;;;;;;1.22;100.00;102418.50;5079238;28;20056;-83
2022/11/27 05:52:58;;;;;;;80.90;63.83;;;;;;;1.08;100.00;102413.34;5070932;28;20071;-86
2022/11/27 05:55:25;;;;;;;50.28;44.90;;;;;;;0.84;100.00;102407.97;5070048;28;20463;-85
2022/11/27 05:57:53;;;;;;;51.85;46.45;;;;;;;1.34;100.00;102422.06;5066360;28;20107;-86
2022/11/27 06:00:22;;;;;;;53.75;46.70;;;;;;;1.38;100.00;102423.53;5071016;28;20126;-85
2022/11/27 06:02:49;;;;;;;56.70;50.67;;;;;;;1.19;100.00;102420.50;5070313;28;20431;-83
2022/11/27 06:05:17;;;;;;;54.28;48.40;;;;;;;1.11;100.00;102426.22;5076531;28;20056;-86
2022/11/27 06:07:44;;;;;;;52.40;47.15;;;;;;;1.46;100.00;102430.88;5068703;28;20048;-85
2022/11/27 06:10:12;;;;;;;51.67;46.25;;;;;;;1.45;100.00;102432.63;5067803;28;20060;-86
2022/11/27 06:12:38;;;;;;;51.78;46.22;;;;;;;1.48;100.00;102428.97;5032843;28;20045;-87
2022/11/27 06:15:06;;;;;;;47.10;42.20;;;;;;;1.38;100.00;102434.84;5063555;28;20109;-83
2022/11/27 06:17:34;;;;;;;46.08;41.42;;;;;;;1.19;100.00;102431.78;5063860;28;20109;-83
2022/11/27 06:20:01;;;;;;;47.38;42.63;;;;;;;1.57;100.00;102428.34;5066008;28;20183;-86
2022/11/27 06:22:27;;;;;;;45.15;40.50;;;;;;;1.05;100.00;102434.47;5064062;28;20052;-85
2022/11/27 06:24:55;;;;;;;48.08;42.97;;;;;;;1.83;100.00;102431.78;5066187;28;20049;-83
2022/11/27 06:27:22;;;;;;;46.58;41.55;;;;;;;1.65;100.00;102449.63;5069684;28;20045;-85
2022/11/27 06:29:49;;;;;;;49.60;43.55;;;;;;;1.54;100.00;102449.50;5058299;28;20095;-85
2022/11/27 06:32:15;;;;;;;71.75;53.50;;;;;;;1.61;100.00;102448.16;5064487;28;20057;-84
2022/11/27 06:34:43;;;;;;;57.75;51.38;;;;;;;1.68;100.00;102441.56;5064063;28;20053;-85
2022/11/27 06:37:10;;;;;;;58.47;51.70;;;;;;;1.75;100.00;102442.78;5061706;28;20064;-85
2022/11/27 06:39:37;;;;;;;56.20;48.08;;;;;;;2.13;100.00;102441.91;5067663;28;20052;-85
2022/11/27 06:42:04;;;;;;;54.50;48.83;;;;;;;2.19;100.00;102441.47;5065860;28;20056;-83
2022/11/27 06:44:30;;;;;;;53.63;46.20;;;;;;;1.67;100.00;102449.53;5062834;28;20048;-85
2022/11/27 06:46:57;;;;;;;58.20;50.42;;;;;;;1.89;100.00;102452.31;5070235;28;20049;-85
2022/11/27 06:49:24;;;;;;;57.47;50.45;;;;;;;2.18;100.00;102450.28;5068068;28;20432;-84
2022/11/27 06:51:52;;;;;;;56.35;49.67;;;;;;;2.31;100.00;102445.00;5061335;28;20063;-83
2022/11/27 06:54:19;;;;;;;66.13;56.80;;;;;;;2.18;100.00;102441.56;5074142;28;20044;-87
2022/11/27 06:56:45;;;;;;;59.30;51.25;;;;;;;2.32;100.00;102435.34;5070577;28;20048;-85
2022/11/27 06:59:13;;;;;;;183.43;104.88;;;;;;;2.63;100.00;102436.59;5065189;28;20117;-83
2022/11/27 07:01:40;;;;;;;192.10;105.85;;;;;;;2.60;100.00;102440.25;5061960;28;20112;-83
2022/11/27 07:04:06;;;;;;;154.68;90.75;;;;;;;2.46;100.00;102438.66;5042290;28;20046;-86
2022/11/27 07:06:33;;;;;;;148.45;84.45;;;;;;;2.41;100.00;102424.19;5061293;28;20045;-83
2022/11/27 07:09:01;;;;;;;99.95;65.93;;;;;;;2.49;100.00;102419.25;5051143;28;20083;-86
2022/11/27 07:11:30;;;;;;;56.42;48.33;;;;;;;2.19;100.00;102425.75;5052896;28;20053;-86
2022/11/27 07:13:59;;;;;;;53.40;47.90;;;;;;;2.56;100.00;102425.72;5046490;28;20060;-85
2022/11/27 07:16:27;;;;;;;52.97;47.13;;;;;;;2.50;100.00;102431.41;5049586;28;20045;-85
2022/11/27 07:18:57;;;;;;;53.60;46.88;;;;;;;2.57;100.00;102423.91;5050649;28;20075;-87
2022/11/27 07:21:24;;;;;;;52.60;46.75;;;;;;;2.65;100.00;102418.94;5039177;28;20080;-87
2022/11/27 07:23:51;;;;;;;50.22;44.92;;;;;;;2.24;100.00;102418.38;5062161;28;20056;-85
2022/11/27 07:26:22;;;;;;;48.72;43.85;;;;;;;2.61;100.00;102425.38;5047189;28;20481;-85
2022/11/27 07:28:49;;;;;;;48.10;42.97;;;;;;;2.89;100.00;102432.06;5054566;28;20447;-86
2022/11/27 07:31:19;;;;;;;49.00;42.78;;;;;;;2.65;100.00;102434.69;5059391;28;20493;-86
2022/11/27 07:33:46;;;;;;;51.97;45.05;;;;;;;2.55;100.00;102438.94;5047653;28;20076;-85
2022/11/27 07:36:15;;;;;;;51.00;45.78;;;;;;;2.51;100.00;102428.69;5055144;28;20059;-85
2022/11/27 07:38:42;;;;;;;55.67;47.03;;;;;;;3.10;100.00;102433.06;5051345;28;20055;-85
2022/11/27 07:41:10;;;;;;;52.72;45.97;;;;;;;2.68;100.00;102422.19;5051288;28;20454;-84
2022/11/27 07:43:38;;;;;;;52.08;46.63;;;;;;;2.58;100.00;102433.47;5065095;28;20067;-83
2022/11/27 07:46:06;;;;;;;49.90;44.17;;;;;;;2.79;100.00;102433.69;5046702;28;20052;-84
2022/11/27 07:48:33;;;;;;;53.00;46.45;;;;;;;3.25;100.00;102432.88;5055636;28;20449;-85
2022/11/27 07:51:00;;;;;;;52.58;46.67;;;;;;;3.44;100.00;102435.78;5061988;28;20044;-84
2022/11/27 07:53:27;;;;;;;54.58;48.88;;;;;;;3.46;100.00;102440.94;5050645;28;20053;-86
2022/11/27 07:55:53;;;;;;;55.35;49.45;;;;;;;3.34;100.00;102450.56;5057796;28;20110;-85
2022/11/27 07:58:20;;;;;;;54.25;48.63;;;;;;;3.31;100.00;102443.75;5055387;28;20106;-86
2022/11/27 08:00:48;;;;;;;52.63;47.15;;;;;;;3.28;100.00;102441.34;5059900;28;20115;-87
2022/11/27 08:03:16;;;;;;;51.55;46.25;;;;;;;3.24;100.00;102441.69;5053971;28;20053;-87
2022/11/27 08:05:42;;;;;;;55.38;48.13;;;;;;;3.41;100.00;102442.09;5055614;28;20143;-84
2022/11/27 08:08:09;;;;;;;55.00;49.28;;;;;;;3.76;100.00;102440.34;5057266;28;20045;-85
2022/11/27 08:10:37;;;;;;;54.13;48.50;;;;;;;3.42;100.00;102440.31;5066442;28;20102;-84
2022/11/27 08:13:04;;;;;;;53.65;47.83;;;;;;;3.50;100.00;102453.69;5053770;28;20045;-86
2022/11/27 08:15:33;;;;;;;55.40;49.55;;;;;;;3.74;100.00;102452.78;5054012;28;20055;-86
2022/11/27 08:18:01;;;;;;;73.85;57.75;;;;;;;3.79;100.00;102448.00;5057342;28;20045;-86
2022/11/27 08:20:28;;;;;;;57.38;49.83;;;;;;;3.79;100.00;102448.84;5055717;28;20485;-85
2022/11/27 08:22:55;;;;;;;59.42;51.47;;;;;;;3.90;100.00;102445.34;5055456;28;20071;-83
2022/11/27 08:25:22;;;;;;;56.55;50.00;;;;;;;3.54;100.00;102447.28;5061306;28;20053;-86
2022/11/27 08:27:49;;;;;;;55.75;49.55;;;;;;;3.71;100.00;102453.00;5059447;28;20045;-85
2022/11/27 08:30:17;;;;;;;55.63;49.60;;;;;;;4.05;100.00;102456.47;5054440;28;20500;-86
2022/11/27 08:32:44;;;;;;;55.65;49.72;;;;;;;3.87;100.00;102466.63;5059889;28;20507;-86
2022/11/27 08:35:17;;;;;;;56.63;50.80;;;;;;;3.78;100.00;102467.34;5065992;28;20087;-86
2022/11/27 08:37:44;;;;;;;;;;;;;;;3.41;100.00;102457.03;5054473;28;20049;-85
2022/11/27 08:40:12;;;;;;;59.33;52.92;;;;;;;4.01;100.00;102458.50;5058143;28;19974;-86
2022/11/27 08:42:38;;;;;;;59.70;53.45;;;;;;;4.12;100.00;102470.81;5049745;28;20049;-84
2022/11/27 08:45:06;;;;;;;58.05;51.65;;;;;;;4.06;100.00;102468.66;5051817;28;20114;-84
2022/11/27 08:47:33;;;;;;;59.67;53.13;;;;;;;3.73;100.00;102464.25;5052629;28;20042;-85
2022/11/27 08:49:59;;;;;;;59.45;53.05;;;;;;;3.84;100.00;102459.84;5051634;28;20052;-85
2022/11/27 08:52:28;;;;;;;61.33;51.85;;;;;;;3.81;100.00;102473.22;5058734;28;20393;-86
2022/11/27 08:54:54;;;;;;;62.20;54.85;;;;;;;4.21;100.00;102467.47;5055589;28;20037;-86
2022/11/27 08:57:21;;;;;;;63.42;55.13;;;;;;;4.06;100.00;102469.50;5052507;28;20550;-86
2022/11/27 08:59:48;;;;;;;66.32;56.83;;;;;;;4.13;100.00;102467.22;5042533;28;20045;-84
2022/11/27 09:02:15;;;;;;;64.85;56.05;;;;;;;3.83;100.00;102460.78;5061875;28;20060;-83
2022/11/27 09:04:42;;;;;;;69.63;54.40;;;;;;;3.68;100.00;102467.22;5071281;28;20060;-83
2022/11/27 09:07:12;;;;;;;68.03;56.47;;;;;;;4.16;100.00;102455.63;5075615;28;20053;-83
2022/11/27 09:09:41;;;;;;;64.45;55.90;;;;;;;4.28;100.00;102447.59;5074416;28;20053;-84
2022/11/27 09:12:08;;;;;;;61.38;53.92;;;;;;;4.19;100.00;102452.75;5068268;28;20045;-85
2022/11/27 09:14:34;;;;;;;58.10;49.55;;;;;;;4.25;100.00;102450.47;5063769;28;20498;-84
2022/11/27 09:17:03;;;;;;;57.83;51.38;;;;;;;4.45;100.00;102448.88;5071329;28;20045;-86
2022/11/27 09:19:31;;;;;;;58.33;51.78;;;;;;;4.36;100.00;102447.81;5074163;28;20048;-84
2022/11/27 09:21:58;;;;;;;58.67;52.53;;;;;;;4.52;100.00;102446.59;5076778;28;20037;-85
2022/11/27 09:24:25;;;;;;;56.13;50.15;;;;;;;4.31;100.00;102436.00;5080901;28;20128;-86
2022/11/27 09:26:54;;;;;;;57.53;51.30;;;;;;;4.51;100.00;102432.59;5081914;28;20032;-86
2022/11/27 09:29:21;;;;;;;58.38;52.25;;;;;;;4.48;100.00;102432.00;5078187;28;20036;-84
2022/11/27 09:31:48;;;;;;;63.20;56.63;;;;;;;4.52;100.00;102430.81;5069416;28;20052;-87
2022/11/27 09:34:15;;;;;;;66.72;59.70;;;;;;;4.71;100.00;102423.06;5074542;28;20118;-84
2022/11/27 09:36:41;;;;;;;89.35;80.30;;;;;;;4.17;100.00;102423.09;5072129;28;20561;-84
2022/11/27 09:39:08;;;;;;;69.25;61.60;;;;;;;4.43;100.00;102413.97;5066652;28;20053;-84
2022/11/27 09:41:42;;;;;;;64.35;56.13;;;;;;;4.03;100.00;102422.41;5069620;28;20114;-84
2022/11/27 09:44:24;;;;;;;66.57;55.70;;;;;;;4.63;100.00;102422.00;5066692;28;20539;-86
2022/11/27 09:46:56;;;;;;;63.97;53.55;;;;;;;4.55;100.00;102423.50;5088268;28;20057;-86
2022/11/27 09:49:30;;;;;;;57.45;49.13;;;;;;;4.16;100.00;102418.81;5069533;28;20067;-84
2022/11/27 09:52:02;;;;;;;73.25;60.63;;;;;;;4.20;100.00;102417.59;5076584;28;20103;-86
2022/11/27 09:54:40;;;;;;;68.38;58.78;;;;;;;4.53;100.00;102411.41;5063915;28;20190;-86
2022/11/27 09:57:11;;;;;;;62.55;53.80;;;;;;;4.58;100.00;102414.50;5072561;28;20469;-86
2022/11/27 09:59:47;;;;;;;56.28;49.97;;;;;;;4.67;100.00;102407.66;5077877;28;20060;-86
2022/11/27 10:02:18;;;;;;;61.42;54.70;;;;;;;4.64;100.00;102416.63;5066592;28;20052;-85
2022/11/27 10:04:45;;;;;;;59.40;52.70;;;;;;;4.48;100.00;102410.94;5063020;28;20548;-85
2022/11/27 10:07:26;;;;;;;59.38;52.85;;;;;;;4.44;100.00;102399.84;5075947;28;20056;-86
2022/11/27 10:10:04;;;;;;;60.63;51.65;;;;;;;4.55;100.00;102406.88;5074835;28;20071;-88
2022/11/27 10:12:41;;;;;;;56.75;50.60;;;;;;;4.62;100.00;102408.03;5070238;28;20049;-84
2022/11/27 10:15:15;;;;;;;60.08;53.53;;;;;;;4.70;100.00;102399.50;5068429;28;20044;-86
2022/11/27 10:17:50;;;;;;;60.65;51.88;;;;;;;4.78;100.00;102404.97;5070626;28;20045;-87
2022/11/27 10:20:27;;;;;;;60.00;53.03;;;;;;;4.57;100.00;102399.69;5072376;28;20048;-83
2022/11/27 10:23:02;;;;;;;56.65;49.97;;;;;;;4.30;100.00;102402.75;5067790;28;20507;-85
2022/11/27 10:25:36;;;;;;;57.45;50.67;;;;;;;4.00;100.00;102391.09;5077011;28;20044;-84
2022/11/27 10:28:14;;;;;;;61.78;51.60;;;;;;;4.44;100.00;102384.03;5082665;28;20037;-86
2022/11/27 10:30:51;;;;;;;60.33;50.38;;;;;;;4.18;100.00;102393.22;5073200;28;20129;-84
2022/11/27 10:33:23;;;;;;;63.88;52.38;;;;;;;4.14;100.00;102387.34;5070707;28;20135;-84
2022/11/27 10:35:50;;;;;;;59.30;52.88;;;;;;;4.44;100.00;102386.69;5072966;28;20125;-84
2022/11/27 10:38:33;;;;;;;57.08;51.13;;;;;;;4.16;100.00;102374.94;5059236;28;20060;-88
2022/11/27 10:41:11;;;;;;;58.80;51.92;;;;;;;4.70;100.00;102381.09;5072580;28;20102;-85
2022/11/27 10:43:40;;;;;;;63.42;56.35;;;;;;;4.85;100.00;102377.19;5073490;28;20045;-84
2022/11/27 10:46:15;;;;;;;61.53;54.90;;;;;;;4.69;100.00;102380.25;5073998;28;20052;-88
2022/11/27 10:48:54;;;;;;;66.32;58.97;;;;;;;4.80;100.00;102376.72;5063441;28;20044;-84
2022/11/27 10:51:24;;;;;;;57.53;51.22;;;;;;;4.58;100.00;102373.22;5075896;28;20052;-87
2022/11/27 10:54:02;;;;;;;57.25;49.83;;;;;;;4.61;100.00;102368.69;5073554;28;20041;-87
2022/11/27 10:56:52;;;;;;;57.70;51.70;;;;;;;4.30;100.00;102369.41;5078432;28;20451;-88
2022/11/27 10:59:26;;;;;;;58.47;52.05;;;;;;;4.78;100.00;102366.34;5073940;28;20511;-84
2022/11/27 11:01:56;;;;;;;57.78;51.53;;;;;;;4.74;100.00;102364.91;5071914;28;20048;-85
2022/11/27 11:04:27;;;;;;;57.35;51.10;;;;;;;4.71;100.00;102365.16;5067970;28;20102;-84
2022/11/27 11:06:53;;;;;;;57.97;50.38;;;;;;;4.39;100.00;102357.28;5069207;28;20045;-87
2022/11/27 11:09:23;;;;;;;58.15;51.83;;;;;;;4.85;100.00;102356.13;5064070;28;20052;-84
2022/11/27 11:11:51;;;;;;;61.53;54.85;;;;;;;4.55;100.00;102354.22;5069883;28;20076;-87
2022/11/27 11:14:20;;;;;;;59.80;53.33;;;;;;;4.89;100.00;102352.25;5067002;28;20399;-84
2022/11/27 11:16:47;;;;;;;55.75;49.72;;;;;;;4.81;100.00;102346.78;5073736;28;20048;-85
2022/11/27 11:19:31;;;;;;;60.33;52.92;;;;;;;4.71;100.00;102341.47;5068569;28;20053;-84